sensor_id;sensor_type;location;lat;lon;timestamp;pressure;altitude;pressure_sealevel;temperature;humidity
34065;BME280;20339;49.754;20.158;2023-05-20T00:01:09;97529.23;;;9.22;100.00
34065;BME280;20339;49.754;20.158;2023-05-20T00:03:40;97528.85;;;9.22;100.00
34065;BME280;20339;49.754;20.158;2023-05-20T00:06:11;97530.02;;;9.23;100.00
34065;BME280;20339;49.754;20.158;2023-05-20T00:08:42;97525.26;;;9.23;100.00
34065;BME280;20339;49.754;20.158;2023-05-20T00:11:13;97524.50;;;9.22;100.00
34065;BME280;20339;49.754;20.158;2023-05-20T00:13:44;97521.76;;;9.23;100.00
34065;BME280;20339;49.754;20.158;2023-05-20T00:16:15;97513.65;;;9.21;100.00
34065;BME280;20339;49.754;20.158;2023-05-20T00:18:46;97516.16;;;9.18;100.00
34065;BME280;20339;49.754;20.158;2023-05-20T00:21:17;97516.35;;;9.17;100.00
34065;BME280;20339;49.754;20.158;2023-05-20T00:23:48;97518.58;;;9.16;100.00
34065;BME280;20339;49.754;20.158;2023-05-20T00:26:19;97514.54;;;9.15;100.00
34065;BME280;20339;49.754;20.158;2023-05-20T00:28:50;97510.95;;;9.16;100.00
34065;BME280;20339;49.754;20.158;2023-05-20T00:31:21;97508.73;;;9.16;100.00
34065;BME280;20339;49.754;20.158;2023-05-20T00:33:52;97513.49;;;9.17;100.00
34065;BME280;20339;49.754;20.158;2023-05-20T00:36:23;97511.61;;;9.18;100.00
34065;BME280;20339;49.754;20.158;2023-05-20T00:38:54;97507.11;;;9.17;100.00
34065;BME280;20339;49.754;20.158;2023-05-20T00:41:25;97503.51;;;9.18;100.00
34065;BME280;20339;49.754;20.158;2023-05-20T00:43:56;97505.16;;;9.18;100.00
34065;BME280;20339;49.754;20.158;2023-05-20T00:46:28;97506.84;;;9.18;100.00
34065;BME280;20339;49.754;20.158;2023-05-20T00:48:59;97509.86;;;9.18;100.00
34065;BME280;20339;49.754;20.158;2023-05-20T00:51:31;97510.96;;;9.18;100.00
34065;BME280;20339;49.754;20.158;2023-05-20T00:54:03;97509.43;;;9.17;100.00
34065;BME280;20339;49.754;20.158;2023-05-20T00:56:34;97512.23;;;9.17;100.00
34065;BME280;20339;49.754;20.158;2023-05-20T00:59:05;97508.85;;;9.17;100.00
34065;BME280;20339;49.754;20.158;2023-05-20T01:01:36;97506.89;;;9.17;100.00
34065;BME280;20339;49.754;20.158;2023-05-20T01:04:07;97504.94;;;9.18;100.00
34065;BME280;20339;49.754;20.158;2023-05-20T01:06:38;97503.45;;;9.17;100.00
34065;BME280;20339;49.754;20.158;2023-05-20T01:09:09;97499.43;;;9.17;100.00
34065;BME280;20339;49.754;20.158;2023-05-20T01:11:46;97496.67;;;9.17;100.00
34065;BME280;20339;49.754;20.158;2023-05-20T01:14:19;97494.34;;;9.17;100.00
34065;BME280;20339;49.754;20.158;2023-05-20T01:16:52;97491.69;;;9.16;100.00
34065;BME280;20339;49.754;20.158;2023-05-20T01:19:37;97497.63;;;9.14;100.00
34065;BME280;20339;49.754;20.158;2023-05-20T01:22:10;97498.41;;;9.13;100.00
34065;BME280;20339;49.754;20.158;2023-05-20T01:24:43;97500.80;;;9.14;100.00
34065;BME280;20339;49.754;20.158;2023-05-20T01:27:14;97503.75;;;9.13;100.00
34065;BME280;20339;49.754;20.158;2023-05-20T01:29:45;97502.48;;;9.13;100.00
34065;BME280;20339;49.754;20.158;2023-05-20T01:32:20;97505.23;;;9.13;100.00
34065;BME280;20339;49.754;20.158;2023-05-20T01:34:53;97505.71;;;9.14;100.00
34065;BME280;20339;49.754;20.158;2023-05-20T01:37:25;97505.15;;;9.14;100.00
34065;BME280;20339;49.754;20.158;2023-05-20T01:39:57;97500.10;;;9.15;100.00
34065;BME280;20339;49.754;20.158;2023-05-20T01:42:29;97500.17;;;9.14;100.00
34065;BME280;20339;49.754;20.158;2023-05-20T01:45:01;97500.79;;;9.14;100.00
34065;BME280;20339;49.754;20.158;2023-05-20T01:47:32;97498.31;;;9.14;100.00
34065;BME280;20339;49.754;20.158;2023-05-20T01:50:04;97492.02;;;9.14;100.00
34065;BME280;20339;49.754;20.158;2023-05-20T01:52:35;97489.59;;;9.14;100.00
34065;BME280;20339;49.754;20.158;2023-05-20T01:55:07;97488.87;;;9.14;100.00
34065;BME280;20339;49.754;20.158;2023-05-20T01:57:38;97493.64;;;9.15;100.00
34065;BME280;20339;49.754;20.158;2023-05-20T02:00:10;97489.58;;;9.16;100.00
34065;BME280;20339;49.754;20.158;2023-05-20T02:02:41;97487.09;;;9.16;100.00
34065;BME280;20339;49.754;20.158;2023-05-20T02:05:12;97485.18;;;9.16;100.00
34065;BME280;20339;49.754;20.158;2023-05-20T02:07:43;97484.88;;;9.16;100.00
34065;BME280;20339;49.754;20.158;2023-05-20T02:10:14;97482.82;;;9.17;100.00
34065;BME280;20339;49.754;20.158;2023-05-20T02:12:45;97482.77;;;9.17;100.00
34065;BME280;20339;49.754;20.158;2023-05-20T02:15:18;97483.03;;;9.18;100.00
34065;BME280;20339;49.754;20.158;2023-05-20T02:17:49;97477.16;;;9.18;100.00
34065;BME280;20339;49.754;20.158;2023-05-20T02:20:20;97479.55;;;9.19;100.00
34065;BME280;20339;49.754;20.158;2023-05-20T02:22:51;97488.51;;;9.20;100.00
34065;BME280;20339;49.754;20.158;2023-05-20T02:25:21;97489.58;;;9.21;100.00
34065;BME280;20339;49.754;20.158;2023-05-20T02:27:52;97490.80;;;9.22;100.00
34065;BME280;20339;49.754;20.158;2023-05-20T02:30:23;97495.25;;;9.23;100.00
34065;BME280;20339;49.754;20.158;2023-05-20T02:32:54;97498.91;;;9.23;100.00
34065;BME280;20339;49.754;20.158;2023-05-20T02:35:26;97497.91;;;9.24;100.00
34065;BME280;20339;49.754;20.158;2023-05-20T02:37:57;97497.38;;;9.24;100.00
34065;BME280;20339;49.754;20.158;2023-05-20T02:40:28;97497.92;;;9.25;100.00
34065;BME280;20339;49.754;20.158;2023-05-20T02:42:59;97497.70;;;9.25;100.00
34065;BME280;20339;49.754;20.158;2023-05-20T02:45:30;97500.41;;;9.26;100.00
34065;BME280;20339;49.754;20.158;2023-05-20T02:48:00;97494.66;;;9.27;100.00
34065;BME280;20339;49.754;20.158;2023-05-20T02:50:31;97493.12;;;9.27;100.00
34065;BME280;20339;49.754;20.158;2023-05-20T02:53:04;97489.66;;;9.29;100.00
34065;BME280;20339;49.754;20.158;2023-05-20T02:55:37;97490.11;;;9.31;100.00
34065;BME280;20339;49.754;20.158;2023-05-20T02:58:08;97485.58;;;9.33;100.00
34065;BME280;20339;49.754;20.158;2023-05-20T03:00:39;97483.95;;;9.35;100.00
34065;BME280;20339;49.754;20.158;2023-05-20T03:03:10;97485.19;;;9.37;100.00
34065;BME280;20339;49.754;20.158;2023-05-20T03:05:41;97484.52;;;9.40;100.00
34065;BME280;20339;49.754;20.158;2023-05-20T03:08:14;97483.41;;;9.43;100.00
34065;BME280;20339;49.754;20.158;2023-05-20T03:10:45;97483.17;;;9.44;100.00
34065;BME280;20339;49.754;20.158;2023-05-20T03:13:16;97484.34;;;9.46;100.00
34065;BME280;20339;49.754;20.158;2023-05-20T03:15:47;97483.30;;;9.47;100.00
34065;BME280;20339;49.754;20.158;2023-05-20T03:18:17;97484.80;;;9.49;100.00
34065;BME280;20339;49.754;20.158;2023-05-20T03:20:48;97489.95;;;9.51;100.00
34065;BME280;20339;49.754;20.158;2023-05-20T03:23:19;97493.83;;;9.53;100.00
34065;BME280;20339;49.754;20.158;2023-05-20T03:25:50;97489.44;;;9.55;100.00
34065;BME280;20339;49.754;20.158;2023-05-20T03:28:21;97483.98;;;9.55;100.00
34065;BME280;20339;49.754;20.158;2023-05-20T03:30:52;97489.23;;;9.56;100.00
34065;BME280;20339;49.754;20.158;2023-05-20T03:33:23;97495.40;;;9.57;100.00
34065;BME280;20339;49.754;20.158;2023-05-20T03:35:55;97496.41;;;9.57;100.00
34065;BME280;20339;49.754;20.158;2023-05-20T03:38:26;97494.31;;;9.58;100.00
34065;BME280;20339;49.754;20.158;2023-05-20T03:40:57;97493.80;;;9.59;100.00
34065;BME280;20339;49.754;20.158;2023-05-20T03:43:28;97495.14;;;9.61;100.00
34065;BME280;20339;49.754;20.158;2023-05-20T03:45:59;97493.35;;;9.63;100.00
34065;BME280;20339;49.754;20.158;2023-05-20T03:48:30;97491.82;;;9.64;100.00
34065;BME280;20339;49.754;20.158;2023-05-20T03:51:01;97494.42;;;9.66;100.00
34065;BME280;20339;49.754;20.158;2023-05-20T03:53:32;97494.86;;;9.68;100.00
34065;BME280;20339;49.754;20.158;2023-05-20T03:56:03;97498.96;;;9.69;100.00
34065;BME280;20339;49.754;20.158;2023-05-20T03:58:34;97499.36;;;9.72;100.00
34065;BME280;20339;49.754;20.158;2023-05-20T04:01:07;97501.08;;;9.73;100.00
34065;BME280;20339;49.754;20.158;2023-05-20T04:03:37;97501.14;;;9.74;100.00
34065;BME280;20339;49.754;20.158;2023-05-20T04:06:10;97500.36;;;9.76;100.00
34065;BME280;20339;49.754;20.158;2023-05-20T04:08:41;97498.62;;;9.77;100.00
34065;BME280;20339;49.754;20.158;2023-05-20T04:11:12;97498.68;;;9.79;100.00
34065;BME280;20339;49.754;20.158;2023-05-20T04:13:43;97495.52;;;9.80;100.00
34065;BME280;20339;49.754;20.158;2023-05-20T04:16:14;97495.48;;;9.82;100.00
34065;BME280;20339;49.754;20.158;2023-05-20T04:18:45;97494.91;;;9.84;100.00
34065;BME280;20339;49.754;20.158;2023-05-20T04:21:16;97494.01;;;9.87;100.00
34065;BME280;20339;49.754;20.158;2023-05-20T04:23:48;97495.77;;;9.89;100.00
34065;BME280;20339;49.754;20.158;2023-05-20T04:26:19;97491.17;;;9.92;100.00
34065;BME280;20339;49.754;20.158;2023-05-20T04:28:51;97493.58;;;9.95;100.00
34065;BME280;20339;49.754;20.158;2023-05-20T04:31:22;97498.09;;;9.96;100.00
34065;BME280;20339;49.754;20.158;2023-05-20T04:33:55;97494.81;;;9.98;100.00
34065;BME280;20339;49.754;20.158;2023-05-20T04:36:27;97496.88;;;10.00;100.00
34065;BME280;20339;49.754;20.158;2023-05-20T04:38:58;97498.00;;;10.03;100.00
34065;BME280;20339;49.754;20.158;2023-05-20T04:41:30;97499.03;;;10.05;100.00
34065;BME280;20339;49.754;20.158;2023-05-20T04:44:01;97498.90;;;10.10;100.00
34065;BME280;20339;49.754;20.158;2023-05-20T04:46:32;97494.81;;;10.14;100.00
34065;BME280;20339;49.754;20.158;2023-05-20T04:49:03;97495.67;;;10.16;100.00
34065;BME280;20339;49.754;20.158;2023-05-20T04:51:34;97494.20;;;10.17;100.00
34065;BME280;20339;49.754;20.158;2023-05-20T04:54:05;97494.42;;;10.19;100.00
34065;BME280;20339;49.754;20.158;2023-05-20T04:56:36;97500.28;;;10.22;100.00
34065;BME280;20339;49.754;20.158;2023-05-20T04:59:08;97502.23;;;10.26;100.00
34065;BME280;20339;49.754;20.158;2023-05-20T05:01:40;97508.70;;;10.33;100.00
34065;BME280;20339;49.754;20.158;2023-05-20T05:04:11;97505.70;;;10.37;100.00
34065;BME280;20339;49.754;20.158;2023-05-20T05:06:42;97506.88;;;10.43;100.00
34065;BME280;20339;49.754;20.158;2023-05-20T05:09:13;97507.23;;;10.48;100.00
34065;BME280;20339;49.754;20.158;2023-05-20T05:11:45;97504.64;;;10.52;100.00
34065;BME280;20339;49.754;20.158;2023-05-20T05:14:16;97500.80;;;10.56;100.00
34065;BME280;20339;49.754;20.158;2023-05-20T05:16:47;97502.48;;;10.61;100.00
34065;BME280;20339;49.754;20.158;2023-05-20T05:19:18;97499.10;;;10.65;100.00
34065;BME280;20339;49.754;20.158;2023-05-20T05:21:49;97495.88;;;10.73;100.00
34065;BME280;20339;49.754;20.158;2023-05-20T05:24:21;97497.69;;;10.78;100.00
34065;BME280;20339;49.754;20.158;2023-05-20T05:26:55;97497.48;;;10.82;100.00
34065;BME280;20339;49.754;20.158;2023-05-20T05:29:26;97498.66;;;10.83;100.00
34065;BME280;20339;49.754;20.158;2023-05-20T05:31:57;97498.70;;;10.86;100.00
34065;BME280;20339;49.754;20.158;2023-05-20T05:34:28;97503.02;;;10.92;100.00
34065;BME280;20339;49.754;20.158;2023-05-20T05:36:59;97506.02;;;10.97;100.00
34065;BME280;20339;49.754;20.158;2023-05-20T05:39:30;97502.16;;;11.00;100.00
34065;BME280;20339;49.754;20.158;2023-05-20T05:42:01;97505.68;;;11.06;100.00
34065;BME280;20339;49.754;20.158;2023-05-20T05:44:32;97504.77;;;11.14;100.00
34065;BME280;20339;49.754;20.158;2023-05-20T05:47:04;97503.41;;;11.22;100.00
34065;BME280;20339;49.754;20.158;2023-05-20T05:49:35;97502.97;;;11.27;100.00
34065;BME280;20339;49.754;20.158;2023-05-20T05:52:07;97499.10;;;11.33;100.00
34065;BME280;20339;49.754;20.158;2023-05-20T05:54:38;97501.66;;;11.40;100.00
34065;BME280;20339;49.754;20.158;2023-05-20T05:57:09;97504.23;;;11.44;100.00
34065;BME280;20339;49.754;20.158;2023-05-20T05:59:40;97507.16;;;11.46;100.00
34065;BME280;20339;49.754;20.158;2023-05-20T06:02:12;97507.58;;;11.47;100.00
34065;BME280;20339;49.754;20.158;2023-05-20T06:04:43;97512.58;;;11.50;100.00
34065;BME280;20339;49.754;20.158;2023-05-20T06:07:14;97513.36;;;11.45;100.00
34065;BME280;20339;49.754;20.158;2023-05-20T06:09:46;97510.45;;;11.49;100.00
34065;BME280;20339;49.754;20.158;2023-05-20T06:12:17;97511.60;;;11.58;100.00
34065;BME280;20339;49.754;20.158;2023-05-20T06:14:49;97509.08;;;11.71;100.00
34065;BME280;20339;49.754;20.158;2023-05-20T06:17:20;97510.27;;;11.79;100.00
34065;BME280;20339;49.754;20.158;2023-05-20T06:19:51;97509.25;;;11.80;100.00
34065;BME280;20339;49.754;20.158;2023-05-20T06:22:22;97506.65;;;11.78;100.00
34065;BME280;20339;49.754;20.158;2023-05-20T06:24:54;97510.73;;;11.93;100.00
34065;BME280;20339;49.754;20.158;2023-05-20T06:27:29;97508.98;;;12.12;100.00
34065;BME280;20339;49.754;20.158;2023-05-20T06:30:00;97506.65;;;12.27;100.00
34065;BME280;20339;49.754;20.158;2023-05-20T06:32:31;97506.16;;;12.40;100.00
34065;BME280;20339;49.754;20.158;2023-05-20T06:35:02;97504.00;;;12.79;100.00
34065;BME280;20339;49.754;20.158;2023-05-20T06:37:33;97501.09;;;14.23;100.00
34065;BME280;20339;49.754;20.158;2023-05-20T06:40:06;97499.73;;;14.71;100.00
34065;BME280;20339;49.754;20.158;2023-05-20T06:42:37;97500.54;;;15.14;100.00
34065;BME280;20339;49.754;20.158;2023-05-20T06:45:10;97497.49;;;15.40;100.00
34065;BME280;20339;49.754;20.158;2023-05-20T06:47:42;97503.06;;;15.77;95.34
34065;BME280;20339;49.754;20.158;2023-05-20T06:50:13;97500.11;;;16.25;96.82
34065;BME280;20339;49.754;20.158;2023-05-20T06:52:44;97495.92;;;18.96;97.25
34065;BME280;20339;49.754;20.158;2023-05-20T06:55:15;97492.46;;;21.28;80.99
34065;BME280;20339;49.754;20.158;2023-05-20T06:57:46;97486.11;;;22.93;74.80
34065;BME280;20339;49.754;20.158;2023-05-20T07:00:17;97481.48;;;23.97;67.05
34065;BME280;20339;49.754;20.158;2023-05-20T07:02:49;97480.15;;;24.42;55.19
34065;BME280;20339;49.754;20.158;2023-05-20T07:05:20;97478.27;;;23.69;53.10
34065;BME280;20339;49.754;20.158;2023-05-20T07:07:54;97480.13;;;22.03;57.54
34065;BME280;20339;49.754;20.158;2023-05-20T07:10:31;97474.45;;;21.59;64.96
34065;BME280;20339;49.754;20.158;2023-05-20T07:13:02;97470.33;;;22.49;68.68
34065;BME280;20339;49.754;20.158;2023-05-20T07:15:33;97466.84;;;23.41;65.33
34065;BME280;20339;49.754;20.158;2023-05-20T07:18:04;97470.63;;;21.91;58.45
34065;BME280;20339;49.754;20.158;2023-05-20T07:20:35;97466.55;;;20.28;61.26
34065;BME280;20339;49.754;20.158;2023-05-20T07:23:06;97461.06;;;20.48;66.50
34065;BME280;20339;49.754;20.158;2023-05-20T07:25:37;97463.39;;;21.09;68.33
34065;BME280;20339;49.754;20.158;2023-05-20T07:28:10;97456.13;;;21.50;65.27
34065;BME280;20339;49.754;20.158;2023-05-20T07:30:42;97450.55;;;21.76;68.18
34065;BME280;20339;49.754;20.158;2023-05-20T07:33:15;97446.70;;;23.02;68.63
34065;BME280;20339;49.754;20.158;2023-05-20T07:35:46;97443.75;;;23.86;67.64
34065;BME280;20339;49.754;20.158;2023-05-20T07:38:17;97444.86;;;25.14;67.77
34065;BME280;20339;49.754;20.158;2023-05-20T07:40:48;97441.58;;;26.00;62.63
34065;BME280;20339;49.754;20.158;2023-05-20T07:43:19;97444.36;;;26.29;63.09
34065;BME280;20339;49.754;20.158;2023-05-20T07:45:50;97436.33;;;28.62;63.62
34065;BME280;20339;49.754;20.158;2023-05-20T07:48:21;97430.67;;;29.59;59.16
34065;BME280;20339;49.754;20.158;2023-05-20T07:50:52;97435.35;;;30.10;57.49
34065;BME280;20339;49.754;20.158;2023-05-20T07:53:25;97430.69;;;30.26;57.48
34065;BME280;20339;49.754;20.158;2023-05-20T07:55:56;97430.42;;;30.39;54.51
34065;BME280;20339;49.754;20.158;2023-05-20T07:58:27;97425.81;;;29.56;52.74
34065;BME280;20339;49.754;20.158;2023-05-20T08:01:00;97423.52;;;28.68;53.02
34065;BME280;20339;49.754;20.158;2023-05-20T08:03:30;97425.55;;;28.58;53.40
34065;BME280;20339;49.754;20.158;2023-05-20T08:06:02;97425.14;;;27.52;51.36
34065;BME280;20339;49.754;20.158;2023-05-20T08:08:33;97432.20;;;26.27;51.42
34065;BME280;20339;49.754;20.158;2023-05-20T08:11:04;97430.85;;;25.96;53.50
34065;BME280;20339;49.754;20.158;2023-05-20T08:13:36;97429.91;;;26.07;52.24
34065;BME280;20339;49.754;20.158;2023-05-20T08:16:07;97429.77;;;26.07;51.18
34065;BME280;20339;49.754;20.158;2023-05-20T08:18:38;97423.27;;;26.17;51.80
34065;BME280;20339;49.754;20.158;2023-05-20T08:21:09;97423.02;;;25.62;52.87
34065;BME280;20339;49.754;20.158;2023-05-20T08:23:40;97423.23;;;26.06;53.37
34065;BME280;20339;49.754;20.158;2023-05-20T08:26:11;97425.33;;;25.68;52.85
34065;BME280;20339;49.754;20.158;2023-05-20T08:28:42;97423.52;;;26.69;54.36
34065;BME280;20339;49.754;20.158;2023-05-20T08:31:13;97418.64;;;28.64;49.75
34065;BME280;20339;49.754;20.158;2023-05-20T08:33:44;97421.70;;;30.37;50.35
34065;BME280;20339;49.754;20.158;2023-05-20T08:36:15;97417.90;;;32.33;49.53
34065;BME280;20339;49.754;20.158;2023-05-20T08:38:48;97413.91;;;33.92;47.72
34065;BME280;20339;49.754;20.158;2023-05-20T08:41:19;97415.07;;;34.67;45.40
34065;BME280;20339;49.754;20.158;2023-05-20T08:43:51;97408.50;;;33.64;44.47
34065;BME280;20339;49.754;20.158;2023-05-20T08:46:23;97407.50;;;33.96;44.34
34065;BME280;20339;49.754;20.158;2023-05-20T08:48:55;97410.39;;;34.98;43.89
34065;BME280;20339;49.754;20.158;2023-05-20T08:51:28;97408.81;;;35.77;42.94
34065;BME280;20339;49.754;20.158;2023-05-20T08:53:59;97408.17;;;36.04;40.73
34065;BME280;20339;49.754;20.158;2023-05-20T08:56:32;97405.06;;;36.38;41.03
34065;BME280;20339;49.754;20.158;2023-05-20T08:59:04;97404.03;;;36.02;39.57
34065;BME280;20339;49.754;20.158;2023-05-20T09:01:39;97404.39;;;34.37;39.66
34065;BME280;20339;49.754;20.158;2023-05-20T09:04:11;97403.35;;;32.30;40.64
34065;BME280;20339;49.754;20.158;2023-05-20T09:06:46;97412.77;;;30.61;41.63
34065;BME280;20339;49.754;20.158;2023-05-20T09:09:17;97408.98;;;29.25;42.74
34065;BME280;20339;49.754;20.158;2023-05-20T09:11:49;97407.33;;;28.14;43.47
34065;BME280;20339;49.754;20.158;2023-05-20T09:14:20;97405.60;;;27.28;44.85
34065;BME280;20339;49.754;20.158;2023-05-20T09:16:52;97406.80;;;26.64;46.27
34065;BME280;20339;49.754;20.158;2023-05-20T09:19:24;97411.59;;;25.76;45.04
34065;BME280;20339;49.754;20.158;2023-05-20T09:21:55;97405.25;;;24.79;47.58
34065;BME280;20339;49.754;20.158;2023-05-20T09:24:27;97403.93;;;24.63;48.91
34065;BME280;20339;49.754;20.158;2023-05-20T09:26:58;97401.70;;;24.45;48.70
34065;BME280;20339;49.754;20.158;2023-05-20T09:29:33;97397.14;;;23.79;49.80
34065;BME280;20339;49.754;20.158;2023-05-20T09:32:05;97392.17;;;23.49;50.78
34065;BME280;20339;49.754;20.158;2023-05-20T09:34:36;97392.23;;;23.33;51.95
34065;BME280;20339;49.754;20.158;2023-05-20T09:37:08;97394.96;;;23.26;52.59
34065;BME280;20339;49.754;20.158;2023-05-20T09:39:45;97394.73;;;23.21;52.77
34065;BME280;20339;49.754;20.158;2023-05-20T09:42:23;97393.46;;;23.02;52.46
34065;BME280;20339;49.754;20.158;2023-05-20T09:44:58;97390.90;;;22.77;54.00
34065;BME280;20339;49.754;20.158;2023-05-20T09:47:30;97393.89;;;22.60;54.92
34065;BME280;20339;49.754;20.158;2023-05-20T09:50:06;97391.33;;;22.69;56.05
34065;BME280;20339;49.754;20.158;2023-05-20T09:52:39;97397.59;;;22.86;56.60
34065;BME280;20339;49.754;20.158;2023-05-20T09:55:10;97398.52;;;22.81;56.27
34065;BME280;20339;49.754;20.158;2023-05-20T09:57:42;97398.20;;;22.20;55.78
34065;BME280;20339;49.754;20.158;2023-05-20T10:00:15;97397.78;;;21.73;57.74
34065;BME280;20339;49.754;20.158;2023-05-20T10:02:49;97395.91;;;21.84;58.64
34065;BME280;20339;49.754;20.158;2023-05-20T10:05:22;97391.77;;;21.98;58.74
34065;BME280;20339;49.754;20.158;2023-05-20T10:08:24;97392.80;;;22.07;59.24
34065;BME280;20339;49.754;20.158;2023-05-20T10:11:04;97386.38;;;22.09;59.35
34065;BME280;20339;49.754;20.158;2023-05-20T10:13:55;97388.84;;;22.12;59.65
34065;BME280;20339;49.754;20.158;2023-05-20T10:16:36;97394.46;;;22.00;60.08
34065;BME280;20339;49.754;20.158;2023-05-20T10:19:22;97394.44;;;21.88;60.31
34065;BME280;20339;49.754;20.158;2023-05-20T10:22:01;97394.34;;;21.83;61.03
34065;BME280;20339;49.754;20.158;2023-05-20T10:24:34;97392.29;;;21.90;61.34
34065;BME280;20339;49.754;20.158;2023-05-20T10:27:08;97394.50;;;21.85;61.07
34065;BME280;20339;49.754;20.158;2023-05-20T10:29:49;97395.52;;;21.72;61.47
34065;BME280;20339;49.754;20.158;2023-05-20T10:32:27;97397.92;;;21.80;62.19
34065;BME280;20339;49.754;20.158;2023-05-20T10:35:04;97394.64;;;21.81;60.93
34065;BME280;20339;49.754;20.158;2023-05-20T10:37:42;97394.54;;;21.33;61.23
34065;BME280;20339;49.754;20.158;2023-05-20T10:40:17;97390.80;;;21.17;62.86
34065;BME280;20339;49.754;20.158;2023-05-20T10:42:49;97393.58;;;21.24;62.76
34065;BME280;20339;49.754;20.158;2023-05-20T10:45:27;97392.86;;;21.23;62.73
34065;BME280;20339;49.754;20.158;2023-05-20T10:48:01;97393.13;;;21.31;64.13
34065;BME280;20339;49.754;20.158;2023-05-20T10:50:36;97395.18;;;21.43;63.54
34065;BME280;20339;49.754;20.158;2023-05-20T10:53:13;97391.48;;;21.40;63.69
34065;BME280;20339;49.754;20.158;2023-05-20T10:55:50;97385.55;;;21.49;64.39
34065;BME280;20339;49.754;20.158;2023-05-20T10:58:22;97384.61;;;21.53;64.18
34065;BME280;20339;49.754;20.158;2023-05-20T11:00:55;97376.41;;;21.52;63.73
34065;BME280;20339;49.754;20.158;2023-05-20T11:03:26;97371.05;;;21.48;64.47
34065;BME280;20339;49.754;20.158;2023-05-20T11:05:57;97372.35;;;21.55;65.15
34065;BME280;20339;49.754;20.158;2023-05-20T11:08:29;97370.54;;;21.60;65.32
34065;BME280;20339;49.754;20.158;2023-05-20T11:11:00;97372.29;;;21.51;64.88
34065;BME280;20339;49.754;20.158;2023-05-20T11:13:31;97365.91;;;21.39;64.74
34065;BME280;20339;49.754;20.158;2023-05-20T11:16:03;97365.30;;;21.25;65.36
34065;BME280;20339;49.754;20.158;2023-05-20T11:18:35;97360.35;;;21.27;65.89
34065;BME280;20339;49.754;20.158;2023-05-20T11:21:06;97358.10;;;21.42;66.16
34065;BME280;20339;49.754;20.158;2023-05-20T11:23:37;97354.02;;;21.42;65.60
34065;BME280;20339;49.754;20.158;2023-05-20T11:26:08;97350.20;;;21.32;65.89
34065;BME280;20339;49.754;20.158;2023-05-20T11:28:39;97349.98;;;21.21;66.20
34065;BME280;20339;49.754;20.158;2023-05-20T11:31:10;97346.70;;;21.16;66.56
34065;BME280;20339;49.754;20.158;2023-05-20T11:33:43;97341.38;;;21.20;67.07
34065;BME280;20339;49.754;20.158;2023-05-20T11:36:16;97341.87;;;21.21;67.07
34065;BME280;20339;49.754;20.158;2023-05-20T11:38:47;97338.88;;;21.25;67.14
34065;BME280;20339;49.754;20.158;2023-05-20T11:41:23;97337.88;;;21.30;67.62
34065;BME280;20339;49.754;20.158;2023-05-20T11:43:59;97337.23;;;21.27;67.28
34065;BME280;20339;49.754;20.158;2023-05-20T11:46:30;97337.80;;;21.28;67.92
34065;BME280;20339;49.754;20.158;2023-05-20T11:49:01;97332.50;;;21.31;68.00
34065;BME280;20339;49.754;20.158;2023-05-20T11:51:34;97334.61;;;21.29;67.76
34065;BME280;20339;49.754;20.158;2023-05-20T11:54:06;97330.85;;;21.28;67.90
34065;BME280;20339;49.754;20.158;2023-05-20T11:56:40;97329.58;;;21.25;68.68
34065;BME280;20339;49.754;20.158;2023-05-20T11:59:14;97332.91;;;21.27;68.41
34065;BME280;20339;49.754;20.158;2023-05-20T12:01:45;97338.30;;;21.24;68.26
34065;BME280;20339;49.754;20.158;2023-05-20T12:04:17;97337.06;;;21.20;68.80
34065;BME280;20339;49.754;20.158;2023-05-20T12:06:48;97333.72;;;21.26;68.78
34065;BME280;20339;49.754;20.158;2023-05-20T12:09:19;97338.92;;;21.24;68.46
34065;BME280;20339;49.754;20.158;2023-05-20T12:11:51;97330.95;;;21.23;68.30
34065;BME280;20339;49.754;20.158;2023-05-20T12:14:24;97330.36;;;21.20;68.69
34065;BME280;20339;49.754;20.158;2023-05-20T12:16:55;97329.63;;;21.21;68.80
34065;BME280;20339;49.754;20.158;2023-05-20T12:19:26;97328.18;;;21.22;68.97
34065;BME280;20339;49.754;20.158;2023-05-20T12:21:57;97328.13;;;21.28;69.25
34065;BME280;20339;49.754;20.158;2023-05-20T12:24:28;97324.84;;;21.35;69.03
34065;BME280;20339;49.754;20.158;2023-05-20T12:26:59;97318.91;;;21.35;69.08
34065;BME280;20339;49.754;20.158;2023-05-20T12:29:32;97322.04;;;21.27;68.95
34065;BME280;20339;49.754;20.158;2023-05-20T12:32:04;97318.58;;;21.26;69.46
34065;BME280;20339;49.754;20.158;2023-05-20T12:34:35;97312.06;;;21.28;69.61
34065;BME280;20339;49.754;20.158;2023-05-20T12:37:06;97318.77;;;21.26;69.35
34065;BME280;20339;49.754;20.158;2023-05-20T12:39:37;97316.11;;;21.24;69.96
34065;BME280;20339;49.754;20.158;2023-05-20T12:42:08;97310.00;;;21.25;69.85
34065;BME280;20339;49.754;20.158;2023-05-20T12:44:39;97309.05;;;21.21;69.95
34065;BME280;20339;49.754;20.158;2023-05-20T12:47:10;97307.49;;;21.22;70.54
34065;BME280;20339;49.754;20.158;2023-05-20T12:49:41;97301.89;;;21.21;70.58
34065;BME280;20339;49.754;20.158;2023-05-20T12:52:12;97295.77;;;21.18;69.86
34065;BME280;20339;49.754;20.158;2023-05-20T12:54:43;97289.48;;;21.16;70.78
34065;BME280;20339;49.754;20.158;2023-05-20T12:57:14;97289.83;;;21.15;69.86
34065;BME280;20339;49.754;20.158;2023-05-20T12:59:47;97294.16;;;20.99;69.85
34065;BME280;20339;49.754;20.158;2023-05-20T13:02:18;97287.02;;;20.98;70.69
34065;BME280;20339;49.754;20.158;2023-05-20T13:04:50;97281.42;;;21.11;70.64
34065;BME280;20339;49.754;20.158;2023-05-20T13:07:21;97280.91;;;21.20;70.59
34065;BME280;20339;49.754;20.158;2023-05-20T13:09:52;97276.80;;;21.17;70.05
34065;BME280;20339;49.754;20.158;2023-05-20T13:12:23;97276.13;;;21.13;70.02